createdAt,value
2018-02-21T00:00:49.386Z,0.30
2018-02-21T00:01:52.626Z,0.40
2018-02-21T00:02:55.854Z,0.40
2018-02-21T00:03:59.101Z,0.40
2018-02-21T00:05:02.333Z,0.30
2018-02-21T00:06:05.603Z,0.40
2018-02-21T00:07:08.840Z,0.40
2018-02-21T00:08:12.077Z,0.40
2018-02-21T00:09:15.306Z,0.40
2018-02-21T00:10:18.558Z,0.40
2018-02-21T00:11:21.806Z,0.30
2018-02-21T00:12:25.792Z,0.30
2018-02-21T00:13:29.825Z,0.40
2018-02-21T00:14:33.015Z,0.30
2018-02-21T00:15:36.243Z,0.30
2018-02-21T00:16:39.565Z,0.30
2018-02-21T00:17:42.786Z,0.20
2018-02-21T00:18:46.004Z,0.30
2018-02-21T00:19:50.041Z,0.30
2018-02-21T00:20:53.264Z,0.30
2018-02-21T00:21:56.510Z,0.30
2018-02-21T00:22:59.729Z,0.30
2018-02-21T00:24:03.073Z,0.30
2018-02-21T00:25:06.304Z,0.30
2018-02-21T00:26:09.536Z,0.30
2018-02-21T00:27:12.858Z,0.40
2018-02-21T00:28:16.050Z,0.40
2018-02-21T00:29:19.285Z,0.30
2018-02-21T00:30:22.516Z,0.30
2018-02-21T00:31:25.771Z,0.20
2018-02-21T00:32:28.982Z,0.20
2018-02-21T00:33:32.214Z,0.30
2018-02-21T00:34:35.544Z,0.20
2018-02-21T00:35:38.772Z,0.20
2018-02-21T00:36:41.990Z,0.30
2018-02-21T00:37:45.210Z,0.20
2018-02-21T00:38:48.572Z,0.20
2018-02-21T00:39:51.760Z,0.30
2018-02-21T00:40:54.993Z,0.30
2018-02-21T00:41:59.005Z,0.30
2018-02-21T00:43:02.234Z,0.30
2018-02-21T00:44:05.457Z,0.20
2018-02-21T00:45:08.672Z,0.20
2018-02-21T00:46:11.926Z,0.30
2018-02-21T00:47:15.905Z,0.40
2018-02-21T00:48:19.898Z,0.30
2018-02-21T00:49:23.116Z,0.30
2018-02-21T00:50:26.341Z,0.30
2018-02-21T00:51:29.573Z,0.40
2018-02-21T00:52:32.821Z,0.30
2018-02-21T00:53:36.090Z,0.30
2018-02-21T00:54:39.317Z,0.30
2018-02-21T00:55:43.679Z,0.30
2018-02-21T00:56:46.864Z,0.30
2018-02-21T00:57:50.172Z,0.30
2018-02-21T00:58:54.578Z,0.20
2018-02-21T00:59:57.815Z,0.20
2018-02-21T01:01:01.046Z,0.30
2018-02-21T01:02:05.081Z,0.30
2018-02-21T01:03:08.305Z,0.20
2018-02-21T01:04:11.541Z,0.20
2018-02-21T01:05:14.794Z,0.20
2018-02-21T01:06:18.100Z,0.20
2018-02-21T01:07:21.389Z,0.20
2018-02-21T01:08:24.611Z,0.20
2018-02-21T01:09:27.849Z,0.20
2018-02-21T01:10:31.823Z,0.20
2018-02-21T01:11:35.187Z,0.20
2018-02-21T01:12:38.391Z,0.30
2018-02-21T01:13:41.652Z,0.30
2018-02-21T01:14:44.857Z,0.40
2018-02-21T01:15:48.176Z,0.40
2018-02-21T01:16:51.404Z,0.30
2018-02-21T01:17:54.649Z,0.40
2018-02-21T01:18:57.945Z,0.30
2018-02-21T01:20:01.252Z,0.30
2018-02-21T01:21:04.451Z,0.40
2018-02-21T01:22:07.673Z,0.30
2018-02-21T01:23:10.983Z,0.30
2018-02-21T01:24:14.208Z,0.20
2018-02-21T01:25:17.431Z,0.20
2018-02-21T01:26:20.693Z,0.30
2018-02-21T01:27:24.690Z,0.40
2018-02-21T01:28:28.721Z,0.50
2018-02-21T01:29:31.990Z,0.50
2018-02-21T01:30:35.235Z,0.50
2018-02-21T01:31:38.436Z,0.40
2018-02-21T01:32:42.438Z,0.30
2018-02-21T01:33:46.417Z,0.30
2018-02-21T01:34:49.665Z,0.30
2018-02-21T01:35:52.890Z,0.20
2018-02-21T01:36:56.114Z,0.20
2018-02-21T01:37:59.371Z,0.30
2018-02-21T01:39:02.590Z,0.30
2018-02-21T01:40:05.815Z,0.30
2018-02-21T01:41:09.048Z,0.30
2018-02-21T01:42:12.366Z,0.40
2018-02-21T01:43:15.591Z,0.30
2018-02-21T01:44:19.583Z,0.20
2018-02-21T01:45:22.789Z,0.20
2018-02-21T01:46:26.201Z,0.20
2018-02-21T01:47:29.400Z,0.20
2018-02-21T01:48:32.626Z,0.10
2018-02-21T01:49:36.617Z,0.00
2018-02-21T01:50:52.297Z,-0.10
2018-02-21T01:51:56.312Z,-0.10
2018-02-21T01:53:00.363Z,-0.20
2018-02-21T01:54:03.695Z,-0.20
2018-02-21T01:55:07.694Z,-0.30
2018-02-21T01:56:10.930Z,-0.30
2018-02-21T01:57:14.162Z,-0.30
2018-02-21T01:58:18.153Z,-0.40
2018-02-21T01:59:22.166Z,-0.30
2018-02-21T02:00:26.176Z,-0.30
2018-02-21T02:01:29.417Z,-0.30
2018-02-21T02:02:32.651Z,-0.30
2018-02-21T02:03:35.928Z,-0.30
2018-02-21T02:04:39.170Z,-0.30
2018-02-21T02:05:42.535Z,-0.40
2018-02-21T02:06:45.829Z,-0.40
2018-02-21T02:07:49.036Z,-0.50
2018-02-21T02:08:53.036Z,-0.50
2018-02-21T02:09:57.047Z,-0.50
2018-02-21T02:11:01.057Z,-0.50
2018-02-21T02:12:04.336Z,-0.50
2018-02-21T02:13:07.582Z,-0.50
2018-02-21T02:14:10.824Z,-0.50
2018-02-21T02:15:14.036Z,-0.40
2018-02-21T02:16:17.271Z,-0.30
2018-02-21T02:17:20.557Z,-0.30
2018-02-21T02:18:23.791Z,-0.20
2018-02-21T02:19:27.037Z,-0.20
2018-02-21T02:20:30.314Z,-0.20
2018-02-21T02:21:33.539Z,-0.10
2018-02-21T02:22:36.768Z,0.00
2018-02-21T02:23:40.010Z,0.00
2018-02-21T02:24:43.238Z,0.00
2018-02-21T02:25:46.472Z,0.00
2018-02-21T02:26:49.700Z,0.10
2018-02-21T02:27:52.942Z,0.20
2018-02-21T02:28:56.164Z,0.20
2018-02-21T02:29:59.424Z,0.30
2018-02-21T02:31:03.438Z,0.20
2018-02-21T02:32:06.665Z,0.20
2018-02-21T02:33:09.893Z,0.20
2018-02-21T02:34:13.899Z,0.20
2018-02-21T02:35:18.067Z,0.20
2018-02-21T02:36:21.283Z,0.10
2018-02-21T02:37:25.358Z,0.20
2018-02-21T02:38:40.265Z,0.20
2018-02-21T02:39:50.422Z,0.10
2018-02-21T02:40:53.633Z,0.10
2018-02-21T02:41:56.917Z,0.10
2018-02-21T02:43:00.093Z,0.00
2018-02-21T02:44:03.320Z,0.00
2018-02-21T02:45:07.367Z,-0.10
2018-02-21T02:46:10.642Z,-0.10
2018-02-21T02:47:13.881Z,-0.10
2018-02-21T02:48:17.923Z,-0.10
2018-02-21T02:49:21.164Z,-0.10
2018-02-21T02:50:24.389Z,0.00
2018-02-21T02:51:27.629Z,0.00
2018-02-21T02:52:31.673Z,-0.10
2018-02-21T02:53:34.910Z,-0.10
2018-02-21T02:54:38.954Z,0.00
2018-02-21T02:55:42.595Z,0.00
2018-02-21T02:56:45.798Z,0.10
2018-02-21T02:57:49.795Z,0.10
2018-02-21T02:58:53.801Z,0.20
2018-02-21T02:59:58.052Z,0.10
2018-02-21T03:01:01.296Z,0.10
2018-02-21T03:02:05.320Z,0.10
2018-02-21T03:03:08.958Z,0.10
2018-02-21T03:04:12.166Z,0.10
2018-02-21T03:05:16.167Z,0.20
2018-02-21T03:06:20.161Z,0.20
2018-02-21T03:07:23.389Z,0.10
2018-02-21T03:08:26.663Z,0.10
2018-02-21T03:09:29.915Z,0.20
2018-02-21T03:10:33.920Z,0.20
2018-02-21T03:11:37.941Z,0.20
2018-02-21T03:12:41.913Z,0.20
2018-02-21T03:13:45.904Z,0.20
2018-02-21T03:14:49.909Z,0.20
2018-02-21T03:15:53.141Z,0.20
2018-02-21T03:16:56.361Z,0.20
2018-02-21T03:17:59.584Z,0.30
2018-02-21T03:19:02.824Z,0.20
2018-02-21T03:20:06.070Z,0.10
2018-02-21T03:21:09.380Z,0.10
2018-02-21T03:22:12.584Z,0.20
2018-02-21T03:23:15.869Z,0.20
2018-02-21T03:24:19.107Z,0.20
2018-02-21T03:25:22.320Z,0.10
2018-02-21T03:26:25.653Z,0.20
2018-02-21T03:27:29.639Z,0.20
2018-02-21T03:28:33.652Z,0.20
2018-02-21T03:29:36.963Z,0.20
2018-02-21T03:30:40.205Z,0.20
2018-02-21T03:31:44.266Z,0.20
2018-02-21T03:32:47.544Z,0.10
2018-02-21T03:33:50.775Z,0.10
2018-02-21T03:34:54.756Z,0.10
2018-02-21T03:35:57.989Z,0.10
2018-02-21T03:37:01.242Z,0.10
2018-02-21T03:38:05.227Z,0.10
2018-02-21T03:39:08.552Z,0.10
2018-02-21T03:40:11.805Z,0.10
2018-02-21T03:41:15.818Z,0.10
2018-02-21T03:42:19.873Z,0.20
2018-02-21T03:43:23.074Z,0.20
2018-02-21T03:44:26.302Z,0.20
2018-02-21T03:45:29.576Z,0.20
2018-02-21T03:46:32.882Z,0.30
2018-02-21T03:47:36.103Z,0.30
2018-02-21T03:48:39.341Z,0.30
2018-02-21T03:49:42.588Z,0.30
2018-02-21T03:50:46.575Z,0.20
2018-02-21T03:51:49.904Z,0.20
2018-02-21T03:52:53.147Z,0.30
2018-02-21T03:53:56.364Z,0.30
2018-02-21T03:54:59.628Z,0.30
2018-02-21T03:56:03.622Z,0.30
2018-02-21T03:57:07.603Z,0.30
2018-02-21T03:58:10.863Z,0.30
2018-02-21T03:59:14.058Z,0.30
2018-02-21T04:00:17.281Z,0.20
2018-02-21T04:01:21.273Z,0.20
2018-02-21T04:02:25.269Z,0.20
2018-02-21T04:03:29.265Z,0.20
2018-02-21T04:04:32.470Z,0.20
2018-02-21T04:05:35.705Z,0.20
2018-02-21T04:06:38.916Z,0.20
2018-02-21T04:07:42.911Z,0.20
2018-02-21T04:08:46.900Z,0.30
2018-02-21T04:09:50.137Z,0.30
2018-02-21T04:10:53.413Z,0.20
2018-02-21T04:11:56.810Z,0.20
2018-02-21T04:13:00.026Z,0.20
2018-02-21T04:14:03.267Z,0.30
2018-02-21T04:16:16.011Z,0.20
2018-02-21T04:17:19.253Z,0.20
2018-02-21T04:18:22.517Z,0.20
2018-02-21T04:19:26.603Z,0.30
2018-02-21T04:20:29.816Z,0.30
2018-02-21T04:21:33.822Z,0.30
2018-02-21T04:22:38.518Z,0.30
2018-02-21T04:23:42.593Z,0.40
2018-02-21T04:24:45.815Z,0.30
2018-02-21T04:25:49.796Z,0.40
2018-02-21T04:26:53.032Z,0.40
2018-02-21T04:27:56.271Z,0.40
2018-02-21T04:29:00.269Z,0.40
2018-02-21T04:30:04.286Z,0.30
2018-02-21T04:31:07.533Z,0.30
2018-02-21T04:32:10.780Z,0.40
2018-02-21T04:33:13.998Z,0.40
2018-02-21T04:34:17.242Z,0.40
2018-02-21T04:35:20.466Z,0.40
2018-02-21T04:36:23.699Z,0.40
2018-02-21T04:37:27.025Z,0.40
2018-02-21T04:38:30.253Z,0.40
2018-02-21T04:39:34.254Z,0.40
2018-02-21T04:40:38.250Z,0.40
2018-02-21T04:41:42.242Z,0.30
2018-02-21T04:42:46.250Z,0.30
2018-02-21T04:43:49.543Z,0.30
2018-02-21T04:44:53.541Z,0.40
2018-02-21T04:45:56.878Z,0.40
2018-02-21T04:47:00.062Z,0.40
2018-02-21T04:48:03.289Z,0.40
2018-02-21T04:49:07.286Z,0.50
2018-02-21T04:50:11.277Z,0.50
2018-02-21T04:51:15.250Z,0.50
2018-02-21T04:52:18.490Z,0.50
2018-02-21T04:53:21.718Z,0.50
2018-02-21T04:54:39.827Z,0.50
2018-02-21T04:57:27.654Z,0.50
2018-02-21T04:58:36.672Z,0.40
2018-02-21T04:59:41.754Z,0.40
2018-02-21T05:00:46.646Z,0.50
2018-02-21T05:01:49.922Z,0.40
2018-02-21T05:02:53.150Z,0.40
2018-02-21T05:03:57.204Z,0.30
2018-02-21T05:05:00.454Z,0.30
2018-02-21T05:06:03.665Z,0.30
2018-02-21T05:07:06.918Z,0.40
2018-02-21T05:08:10.163Z,0.40
2018-02-21T05:09:13.371Z,0.40
2018-02-21T05:10:16.594Z,0.40
2018-02-21T05:11:19.836Z,0.30
2018-02-21T05:12:23.850Z,0.20
2018-02-21T05:13:27.075Z,0.20
2018-02-21T05:14:30.346Z,0.20
2018-02-21T05:15:33.628Z,0.20
2018-02-21T05:16:36.920Z,0.20
2018-02-21T05:17:40.108Z,0.30
2018-02-21T05:18:43.374Z,0.30
2018-02-21T05:19:46.605Z,0.30
2018-02-21T05:20:50.678Z,0.40
2018-02-21T05:21:53.966Z,0.40
2018-02-21T05:22:57.202Z,0.40
2018-02-21T05:24:00.478Z,0.30
2018-02-21T05:25:03.728Z,0.30
2018-02-21T05:26:07.093Z,0.20
2018-02-21T05:27:10.279Z,0.20
2018-02-21T05:28:13.517Z,0.20
2018-02-21T05:29:17.763Z,0.40
2018-02-21T05:30:21.005Z,0.30
2018-02-21T05:31:24.994Z,0.30
2018-02-21T05:32:29.013Z,0.20
2018-02-21T05:33:32.235Z,0.20
2018-02-21T05:34:35.470Z,0.20
2018-02-21T05:35:39.545Z,0.10
2018-02-21T05:36:43.561Z,0.10
2018-02-21T05:37:47.545Z,0.10
2018-02-21T05:38:50.758Z,0.10
2018-02-21T05:39:53.978Z,0.10
2018-02-21T05:40:57.264Z,0.00
2018-02-21T05:42:00.471Z,0.10
2018-02-21T05:43:03.806Z,0.10
2018-02-21T05:44:07.072Z,0.00
2018-02-21T05:45:10.327Z,0.10
2018-02-21T05:46:13.560Z,0.00
2018-02-21T05:47:17.791Z,0.10
2018-02-21T05:48:21.090Z,0.20
2018-02-21T05:49:24.313Z,0.10
2018-02-21T05:50:27.622Z,0.00
2018-02-21T05:51:30.853Z,-0.10
2018-02-21T05:52:34.867Z,-0.10
2018-02-21T05:53:38.857Z,-0.10
2018-02-21T05:54:42.966Z,-0.10
2018-02-21T05:55:46.984Z,-0.10
2018-02-21T05:56:50.287Z,-0.10
2018-02-21T05:57:53.519Z,-0.10
2018-02-21T05:58:56.896Z,-0.10
2018-02-21T06:00:00.140Z,-0.20
2018-02-21T06:01:03.386Z,-0.10
2018-02-21T06:02:07.488Z,0.00
2018-02-21T06:03:11.493Z,0.10
2018-02-21T06:04:15.522Z,0.00
2018-02-21T06:05:18.761Z,0.00
2018-02-21T06:06:22.113Z,-0.10
2018-02-21T06:07:25.317Z,-0.20
2018-02-21T06:08:28.684Z,-0.20
2018-02-21T06:09:31.913Z,-0.10
2018-02-21T06:10:35.906Z,0.00
2018-02-21T06:11:40.014Z,0.00
2018-02-21T06:12:44.039Z,0.00
2018-02-21T06:13:47.258Z,0.00
2018-02-21T06:14:50.474Z,0.00
2018-02-21T06:15:53.710Z,0.10
2018-02-21T06:16:56.931Z,0.10
2018-02-21T06:18:00.169Z,0.10
2018-02-21T06:19:03.478Z,0.10
2018-02-21T06:20:06.727Z,0.00
2018-02-21T06:21:09.962Z,0.00
2018-02-21T06:22:13.949Z,0.00
2018-02-21T06:23:17.180Z,0.00
2018-02-21T06:24:20.430Z,0.10
2018-02-21T06:25:23.646Z,0.00
2018-02-21T06:26:26.865Z,0.20
2018-02-21T06:27:30.136Z,0.20
2018-02-21T06:28:33.349Z,0.10
2018-02-21T06:29:36.577Z,0.10
2018-02-21T06:30:39.823Z,0.00
2018-02-21T06:31:43.053Z,0.00
2018-02-21T06:32:46.865Z,0.00
2018-02-21T06:33:50.094Z,0.00
2018-02-21T06:34:54.107Z,0.10
2018-02-21T06:35:58.108Z,0.10
2018-02-21T06:37:02.131Z,0.10
2018-02-21T06:38:05.371Z,0.10
2018-02-21T06:39:08.645Z,0.10
2018-02-21T06:40:11.864Z,0.20
2018-02-21T06:41:15.125Z,0.20
2018-02-21T06:42:18.351Z,0.20
2018-02-21T06:43:21.591Z,0.10
2018-02-21T06:44:25.598Z,0.10
2018-02-21T06:45:29.601Z,0.10
2018-02-21T06:46:33.595Z,0.00
2018-02-21T06:47:36.806Z,0.00
2018-02-21T06:48:40.150Z,0.00
2018-02-21T06:49:43.360Z,0.10
2018-02-21T06:50:47.391Z,0.00
2018-02-21T06:51:50.654Z,0.10
2018-02-21T06:52:53.888Z,0.10
2018-02-21T06:53:57.134Z,0.00
2018-02-21T06:55:00.362Z,0.00
2018-02-21T06:56:03.623Z,0.00
2018-02-21T06:57:06.857Z,0.10
2018-02-21T06:58:10.870Z,-0.10
2018-02-21T06:59:14.933Z,0.00
2018-02-21T07:00:18.962Z,0.00
2018-02-21T07:01:23.788Z,-0.10
2018-02-21T07:02:34.846Z,-0.10
2018-02-21T07:03:38.844Z,-0.20
2018-02-21T07:04:42.134Z,-0.20
2018-02-21T07:05:46.211Z,0.00
2018-02-21T07:06:49.434Z,0.00
2018-02-21T07:07:52.681Z,0.00
2018-02-21T07:08:56.693Z,-0.10
2018-02-21T07:10:00.711Z,0.00
2018-02-21T07:11:04.702Z,0.10
2018-02-21T07:12:08.701Z,0.10
2018-02-21T07:13:12.710Z,0.10
2018-02-21T07:14:16.697Z,0.00
2018-02-21T07:15:20.691Z,0.00
2018-02-21T07:16:23.921Z,0.00
2018-02-21T07:17:27.241Z,0.10
2018-02-21T07:18:30.481Z,0.20
2018-02-21T07:19:33.706Z,0.20
2018-02-21T07:20:36.992Z,0.10
2018-02-21T07:21:40.232Z,0.00
2018-02-21T07:22:43.469Z,-0.10
2018-02-21T07:23:46.702Z,0.00
2018-02-21T07:24:50.691Z,0.00
2018-02-21T07:25:53.919Z,0.00
2018-02-21T07:26:57.149Z,0.00
2018-02-21T07:28:00.368Z,0.10
2018-02-21T07:29:04.354Z,0.00
2018-02-21T07:30:08.390Z,0.10
2018-02-21T07:31:11.675Z,0.10
2018-02-21T07:32:14.912Z,0.10
2018-02-21T07:33:18.147Z,0.10
2018-02-21T07:34:21.365Z,0.00
2018-02-21T07:35:24.598Z,0.10
2018-02-21T07:36:27.843Z,0.10
2018-02-21T07:37:31.073Z,0.10
2018-02-21T07:38:34.297Z,0.10
2018-02-21T07:39:37.538Z,0.20
2018-02-21T07:40:40.769Z,0.20
2018-02-21T07:41:44.013Z,0.10
2018-02-21T07:42:47.244Z,0.10
2018-02-21T07:43:50.456Z,0.00
2018-02-21T07:44:53.764Z,-0.10
2018-02-21T07:45:57.045Z,-0.10
2018-02-21T07:47:00.277Z,0.00
2018-02-21T07:48:04.265Z,0.00
2018-02-21T07:49:07.543Z,0.00
2018-02-21T07:50:10.785Z,0.00
2018-02-21T07:51:14.018Z,0.00
2018-02-21T07:52:17.246Z,0.00
2018-02-21T07:53:20.487Z,0.00
2018-02-21T07:54:23.719Z,0.10
2018-02-21T07:55:26.937Z,0.10
2018-02-21T07:56:30.185Z,0.10
2018-02-21T07:57:33.412Z,0.10
2018-02-21T07:58:36.656Z,0.10
2018-02-21T07:59:39.878Z,0.10
2018-02-21T08:00:43.176Z,0.10
2018-02-21T08:01:46.507Z,0.10
2018-02-21T08:02:49.769Z,0.20
2018-02-21T08:03:53.762Z,0.20
2018-02-21T08:04:57.769Z,0.30
2018-02-21T08:06:00.978Z,0.30
2018-02-21T08:07:04.204Z,0.20
2018-02-21T08:08:07.441Z,0.20
2018-02-21T08:09:10.821Z,0.20
2018-02-21T08:10:14.035Z,0.20
2018-02-21T08:11:17.267Z,0.30
2018-02-21T08:12:21.285Z,0.40
2018-02-21T08:13:24.546Z,0.30
2018-02-21T08:14:28.524Z,0.30
2018-02-21T08:15:31.796Z,0.30
2018-02-21T08:16:34.993Z,0.40
2018-02-21T08:17:38.269Z,0.50
2018-02-21T08:18:41.457Z,0.40
2018-02-21T08:19:44.694Z,0.30
2018-02-21T08:20:47.943Z,0.40
2018-02-21T08:21:51.162Z,0.40
2018-02-21T08:22:54.419Z,0.30
2018-02-21T08:23:57.659Z,0.40
2018-02-21T08:25:00.952Z,0.40
2018-02-21T08:26:04.186Z,0.40
2018-02-21T08:27:07.407Z,0.60
2018-02-21T08:28:12.272Z,0.50
2018-02-21T08:29:15.511Z,0.50
2018-02-21T08:30:18.762Z,0.60
2018-02-21T08:31:22.003Z,0.70
2018-02-21T08:32:25.997Z,0.90
2018-02-21T08:33:29.259Z,0.80
2018-02-21T08:34:32.446Z,0.70
2018-02-21T08:35:35.666Z,0.70
2018-02-21T08:36:39.672Z,0.70
2018-02-21T08:37:43.654Z,0.70
2018-02-21T08:38:47.647Z,0.70
2018-02-21T08:39:50.882Z,0.70
2018-02-21T08:40:54.109Z,0.80
2018-02-21T08:41:57.370Z,0.70
2018-02-21T08:43:00.604Z,0.70
2018-02-21T08:44:04.582Z,0.60
2018-02-21T08:45:08.657Z,0.60
2018-02-21T08:46:11.849Z,0.50
2018-02-21T08:47:15.130Z,0.60
2018-02-21T08:48:18.317Z,0.60
2018-02-21T08:49:23.035Z,0.70
2018-02-21T08:50:27.844Z,0.70
2018-02-21T08:51:31.052Z,0.70
2018-02-21T08:52:34.278Z,0.70
2018-02-21T08:53:37.517Z,0.60
2018-02-21T08:54:41.499Z,0.60
2018-02-21T08:55:44.725Z,0.60
2018-02-21T08:56:47.957Z,0.60
2018-02-21T08:57:51.204Z,0.60
2018-02-21T08:58:54.429Z,0.60
2018-02-21T08:59:57.679Z,0.80
2018-02-21T09:01:00.980Z,0.80
2018-02-21T09:02:04.259Z,0.70
2018-02-21T09:03:07.469Z,0.70
2018-02-21T09:04:10.703Z,0.60
2018-02-21T09:05:13.953Z,0.60
2018-02-21T09:06:17.965Z,0.80
2018-02-21T09:07:21.215Z,0.70
2018-02-21T09:08:24.480Z,0.80
2018-02-21T09:09:27.709Z,0.90
2018-02-21T09:10:31.706Z,1.30
2018-02-21T09:11:35.709Z,1.40
2018-02-21T09:12:38.951Z,1.40
2018-02-21T09:13:42.175Z,1.40
2018-02-21T09:14:46.171Z,1.50
2018-02-21T09:15:50.199Z,1.60
2018-02-21T09:16:53.457Z,1.60
2018-02-21T09:17:56.692Z,1.60
2018-02-21T09:18:59.958Z,1.60
2018-02-21T09:20:03.212Z,1.60
2018-02-21T09:21:06.500Z,1.50
2018-02-21T09:22:10.486Z,1.40
2018-02-21T09:23:14.488Z,1.20
2018-02-21T09:24:17.754Z,1.20
2018-02-21T09:25:20.977Z,1.20
2018-02-21T09:26:24.216Z,1.20
2018-02-21T09:27:27.494Z,1.20
2018-02-21T09:28:30.705Z,1.20
2018-02-21T09:29:34.692Z,1.10
2018-02-21T09:30:37.938Z,1.10
2018-02-21T09:31:41.234Z,1.10
2018-02-21T09:32:44.455Z,1.30
2018-02-21T09:33:48.485Z,1.30
2018-02-21T09:34:51.710Z,1.30
2018-02-21T09:35:54.942Z,1.30
2018-02-21T09:36:58.172Z,1.30
2018-02-21T09:38:01.388Z,1.20
2018-02-21T09:39:05.388Z,1.10
2018-02-21T09:40:09.396Z,1.00
2018-02-21T09:41:13.408Z,0.90
2018-02-21T09:42:17.397Z,0.90
2018-02-21T09:43:21.390Z,1.00
2018-02-21T09:44:25.392Z,1.10
2018-02-21T09:45:29.386Z,1.10
2018-02-21T09:46:32.598Z,1.10
2018-02-21T09:47:35.824Z,1.10
2018-02-21T09:48:39.038Z,1.10
2018-02-21T09:49:43.033Z,1.00
2018-02-21T09:50:46.248Z,1.00
2018-02-21T09:51:49.473Z,1.00
2018-02-21T09:52:52.736Z,1.10
2018-02-21T09:53:56.702Z,1.20
2018-02-21T09:55:00.676Z,1.30
2018-02-21T09:56:03.902Z,1.30
2018-02-21T09:57:07.134Z,1.20
2018-02-21T09:58:10.363Z,1.30
2018-02-21T09:59:13.599Z,1.30
2018-02-21T10:00:16.828Z,1.30
2018-02-21T10:01:20.046Z,1.20
2018-02-21T10:02:23.280Z,1.10
2018-02-21T10:03:27.276Z,1.00
2018-02-21T10:04:31.268Z,1.10
2018-02-21T10:05:35.274Z,1.00
2018-02-21T10:06:39.253Z,1.10
2018-02-21T10:07:42.494Z,1.10
2018-02-21T10:08:45.736Z,1.10
2018-02-21T10:09:49.797Z,1.10
2018-02-21T10:10:53.093Z,1.00
2018-02-21T10:11:56.310Z,1.00
2018-02-21T10:13:00.312Z,1.10
2018-02-21T10:14:04.306Z,1.20
2018-02-21T10:15:08.339Z,1.20
2018-02-21T10:16:12.369Z,1.30
2018-02-21T10:17:15.648Z,1.30
2018-02-21T10:18:18.855Z,1.30
2018-02-21T10:19:22.079Z,1.30
2018-02-21T10:20:25.314Z,1.40
2018-02-21T10:21:28.544Z,1.40
2018-02-21T10:22:31.798Z,1.50
2018-02-21T10:23:35.036Z,1.60
2018-02-21T10:24:38.248Z,1.60
2018-02-21T10:25:41.561Z,1.60
2018-02-21T10:26:45.554Z,1.80
2018-02-21T10:27:49.594Z,1.80
2018-02-21T10:28:52.893Z,1.80
2018-02-21T10:29:56.162Z,1.90
2018-02-21T10:30:59.401Z,1.80
2018-02-21T10:32:02.643Z,1.80
2018-02-21T10:33:05.883Z,1.80
2018-02-21T10:34:09.900Z,2.00
2018-02-21T10:35:13.869Z,1.90
2018-02-21T10:36:17.206Z,1.90
2018-02-21T10:37:20.440Z,1.90
2018-02-21T10:38:24.428Z,1.80
2018-02-21T10:39:28.449Z,1.80
2018-02-21T10:40:33.436Z,1.80
2018-02-21T10:41:36.698Z,1.80
2018-02-21T10:42:39.956Z,1.80
2018-02-21T10:43:43.934Z,1.70
2018-02-21T10:44:47.914Z,1.80
2018-02-21T10:45:52.674Z,1.80
2018-02-21T10:46:55.923Z,1.90
2018-02-21T10:47:59.147Z,1.90
2018-02-21T10:49:02.388Z,2.00
2018-02-21T10:50:05.614Z,2.00
2018-02-21T10:51:08.857Z,2.10
2018-02-21T10:52:12.126Z,2.20
2018-02-21T10:53:15.345Z,2.30
2018-02-21T10:54:19.338Z,2.30
2018-02-21T10:55:23.356Z,2.30
2018-02-21T10:56:26.569Z,2.30
2018-02-21T10:57:29.835Z,2.20
2018-02-21T10:58:33.076Z,2.20
2018-02-21T10:59:36.319Z,2.20
2018-02-21T11:00:45.138Z,2.20
2018-02-21T11:01:48.384Z,2.30
2018-02-21T11:02:51.592Z,2.50
2018-02-21T11:03:54.812Z,2.50
2018-02-21T11:04:58.088Z,2.50
2018-02-21T11:06:01.399Z,2.60
2018-02-21T11:07:05.420Z,2.70
2018-02-21T11:08:08.652Z,2.60
2018-02-21T11:09:11.947Z,2.70
2018-02-21T11:10:15.177Z,2.60
2018-02-21T11:11:18.414Z,2.70
2018-02-21T11:12:21.667Z,2.40
2018-02-21T11:13:24.921Z,2.40
2018-02-21T11:14:28.133Z,2.50
2018-02-21T11:15:31.380Z,2.50
2018-02-21T11:16:34.633Z,2.50
2018-02-21T11:17:37.852Z,2.50
2018-02-21T11:18:41.097Z,2.50
2018-02-21T11:19:44.329Z,2.50
2018-02-21T11:20:47.545Z,2.50
2018-02-21T11:21:50.790Z,2.40
2018-02-21T11:22:53.998Z,2.40
2018-02-21T11:23:57.239Z,2.40
2018-02-21T11:25:00.461Z,2.40
2018-02-21T11:26:03.704Z,2.50
2018-02-21T11:27:07.692Z,2.60
2018-02-21T11:28:11.694Z,2.50
2018-02-21T11:29:15.687Z,2.40
2018-02-21T11:30:18.911Z,2.50
2018-02-21T11:31:22.174Z,2.50
2018-02-21T11:32:26.162Z,2.80
2018-02-21T11:33:30.183Z,2.80
2018-02-21T11:34:33.416Z,2.80
2018-02-21T11:35:38.207Z,2.80
2018-02-21T11:36:41.462Z,2.80
2018-02-21T11:37:44.707Z,2.80
2018-02-21T11:38:47.936Z,2.80
2018-02-21T11:39:51.163Z,2.70
2018-02-21T11:40:54.407Z,2.70
2018-02-21T11:41:57.650Z,2.70
2018-02-21T11:43:00.864Z,2.80
2018-02-21T11:44:04.148Z,2.90
2018-02-21T11:45:07.411Z,3.00
2018-02-21T11:46:10.607Z,3.10
2018-02-21T11:47:13.944Z,3.00
2018-02-21T11:48:17.185Z,3.10
2018-02-21T11:49:20.404Z,3.20
2018-02-21T11:50:23.656Z,3.30
2018-02-21T11:51:26.878Z,3.30
2018-02-21T11:52:30.136Z,3.20
2018-02-21T11:53:33.363Z,3.30
2018-02-21T11:54:36.586Z,3.30
2018-02-21T11:55:39.794Z,3.20
2018-02-21T11:56:43.053Z,3.30
2018-02-21T11:57:46.266Z,3.20
2018-02-21T11:58:49.482Z,3.20
2018-02-21T11:59:53.461Z,3.20
2018-02-21T12:00:56.673Z,3.30
2018-02-21T12:02:00.674Z,3.30
2018-02-21T12:03:04.666Z,3.30
2018-02-21T12:04:07.901Z,3.30
2018-02-21T12:05:11.137Z,3.50
2018-02-21T12:06:15.980Z,3.60
2018-02-21T12:07:19.205Z,3.70
2018-02-21T12:08:22.450Z,3.60
2018-02-21T12:09:25.680Z,3.60
2018-02-21T12:10:29.018Z,3.50
2018-02-21T12:11:32.251Z,3.50
2018-02-21T12:12:35.501Z,3.50
2018-02-21T12:13:38.724Z,3.60
2018-02-21T12:14:42.038Z,3.50
2018-02-21T12:15:45.267Z,3.40
2018-02-21T12:16:48.505Z,3.50
2018-02-21T12:17:51.751Z,3.60
2018-02-21T12:18:54.973Z,3.60
2018-02-21T12:19:58.261Z,3.50
2018-02-21T12:21:01.492Z,3.50
2018-02-21T12:22:04.734Z,3.50
2018-02-21T12:23:07.969Z,3.50
2018-02-21T12:24:11.203Z,3.40
2018-02-21T12:25:14.435Z,3.50
2018-02-21T12:26:17.680Z,3.60
2018-02-21T12:27:20.893Z,3.80
2018-02-21T12:28:24.129Z,3.70
2018-02-21T12:29:27.407Z,3.70
2018-02-21T12:30:30.604Z,3.70
2018-02-21T12:31:33.869Z,3.50
2018-02-21T12:32:39.000Z,3.50
2018-02-21T12:33:42.220Z,3.60
2018-02-21T12:34:45.449Z,3.80
2018-02-21T12:35:49.469Z,3.70
2018-02-21T12:36:52.901Z,3.70
2018-02-21T12:37:56.122Z,3.60
2018-02-21T12:39:05.011Z,3.70
2018-02-21T12:40:08.237Z,3.90
2018-02-21T12:41:17.247Z,3.70
2018-02-21T12:42:21.233Z,3.90
2018-02-21T12:43:25.231Z,3.80
2018-02-21T12:44:29.215Z,3.80
2018-02-21T12:45:32.430Z,3.80
2018-02-21T12:46:35.667Z,3.80
2018-02-21T12:47:38.915Z,3.90
2018-02-21T12:48:42.132Z,3.90
2018-02-21T12:49:45.359Z,3.80
2018-02-21T12:50:49.360Z,3.80
2018-02-21T12:51:53.349Z,3.70
2018-02-21T12:52:57.337Z,3.80
2018-02-21T12:54:01.327Z,3.70
2018-02-21T12:55:04.551Z,3.70
2018-02-21T12:56:07.777Z,3.70
2018-02-21T12:57:10.999Z,3.70
2018-02-21T12:58:15.034Z,3.80
2018-02-21T12:59:18.274Z,3.80
2018-02-21T13:00:21.481Z,3.90
2018-02-21T13:01:24.713Z,4.10
2018-02-21T13:02:27.994Z,4.10
2018-02-21T13:03:31.219Z,4.00
2018-02-21T13:04:35.209Z,4.00
2018-02-21T13:05:39.187Z,4.00
2018-02-21T13:06:42.407Z,4.00
2018-02-21T13:07:45.627Z,4.10
2018-02-21T13:08:48.865Z,4.10
2018-02-21T13:09:52.847Z,4.30
2018-02-21T13:10:56.846Z,4.40
2018-02-21T13:12:00.877Z,4.50
2018-02-21T13:13:04.847Z,4.60
2018-02-21T13:14:08.092Z,4.60
2018-02-21T13:15:11.334Z,4.70
2018-02-21T13:16:15.393Z,4.70
2018-02-21T13:17:18.595Z,4.70
2018-02-21T13:18:21.864Z,4.70
2018-02-21T13:19:25.055Z,4.80
2018-02-21T13:20:28.429Z,5.00
2018-02-21T13:21:31.626Z,5.20
2018-02-21T13:22:34.849Z,5.30
2018-02-21T13:23:38.078Z,5.50
2018-02-21T13:24:41.295Z,5.50
2018-02-21T13:25:45.290Z,5.50
2018-02-21T13:26:49.276Z,5.40
2018-02-21T13:27:52.496Z,5.30
2018-02-21T13:28:55.733Z,5.50
2018-02-21T13:29:58.968Z,5.60
2018-02-21T13:31:02.192Z,5.80
2018-02-21T13:32:05.428Z,6.10
2018-02-21T13:33:08.655Z,6.40
2018-02-21T13:34:11.860Z,6.30
2018-02-21T13:35:15.859Z,6.40
2018-02-21T13:36:19.076Z,6.40
2018-02-21T13:37:22.300Z,6.30
2018-02-21T13:38:25.515Z,6.00
2018-02-21T13:39:29.516Z,5.80
2018-02-21T13:40:33.545Z,5.50
2018-02-21T13:41:36.768Z,5.50
2018-02-21T13:42:39.982Z,5.40
2018-02-21T13:43:43.988Z,5.20
2018-02-21T13:44:47.969Z,5.00
2018-02-21T13:45:51.211Z,5.00
2018-02-21T13:46:54.432Z,4.90
2018-02-21T13:47:57.680Z,4.90
2018-02-21T13:49:00.896Z,4.90
2018-02-21T13:50:04.130Z,4.70
2018-02-21T13:51:07.449Z,4.60
2018-02-21T13:52:10.679Z,4.50
2018-02-21T13:53:14.670Z,4.30
2018-02-21T13:54:18.659Z,4.20
2018-02-21T13:55:22.691Z,4.10
2018-02-21T13:56:26.661Z,4.10
2018-02-21T13:57:29.922Z,4.10
2018-02-21T13:58:33.150Z,4.00
2018-02-21T13:59:36.374Z,4.10
2018-02-21T14:00:39.603Z,4.10
2018-02-21T14:01:43.601Z,3.90
2018-02-21T14:02:47.588Z,3.80
2018-02-21T14:03:50.827Z,3.80
2018-02-21T14:04:54.041Z,3.90
2018-02-21T14:05:57.262Z,3.90
2018-02-21T14:07:00.529Z,3.80